createdAt,value
2022-12-01T00:01:52.677Z,101109.97
2022-12-01T00:04:54.547Z,101122.97
2022-12-01T00:07:57.782Z,101131.50
2022-12-01T00:11:03.463Z,101133.78
2022-12-01T00:14:05.592Z,101133.69
2022-12-01T00:17:07.422Z,101128.06
2022-12-01T00:20:09.475Z,101131.16
2022-12-01T00:23:13.683Z,101143.91
2022-12-01T00:26:16.077Z,101134.41
2022-12-01T00:29:17.982Z,101142.50
2022-12-01T00:32:19.857Z,101138.53
2022-12-01T00:35:21.875Z,101142.13
2022-12-01T00:38:23.746Z,101139.78
2022-12-01T00:41:25.799Z,101132.72
2022-12-01T00:44:27.642Z,101144.50
2022-12-01T00:47:29.489Z,101151.69
2022-12-01T00:50:31.352Z,101147.84
2022-12-01T00:53:33.181Z,101153.66
2022-12-01T00:56:35.069Z,101147.03
2022-12-01T00:59:36.996Z,101156.25
2022-12-01T01:02:42.719Z,101157.59
2022-12-01T01:05:44.674Z,101157.81
2022-12-01T01:08:46.494Z,101157.31
2022-12-01T01:11:48.449Z,101155.28
2022-12-01T01:14:50.285Z,101160.91
2022-12-01T01:17:54.427Z,101144.53
2022-12-01T01:20:59.636Z,101156.44
2022-12-01T01:24:01.717Z,101140.97
2022-12-01T01:27:03.722Z,101145.66
2022-12-01T01:30:06.030Z,101147.00
2022-12-01T01:33:07.971Z,101145.75
2022-12-01T01:36:10.108Z,101144.41
2022-12-01T01:39:11.923Z,101137.22
2022-12-01T01:42:14.272Z,101144.69
2022-12-01T01:45:23.796Z,101146.06
2022-12-01T01:48:25.640Z,101139.94
2022-12-01T01:51:47.706Z,101153.72
2022-12-01T01:54:50.112Z,101160.34
2022-12-01T01:57:51.963Z,101158.66
2022-12-01T02:00:53.863Z,101152.28
2022-12-01T02:03:55.788Z,101153.09
2022-12-01T02:06:57.599Z,101153.97
2022-12-01T02:09:59.469Z,101149.41
2022-12-01T02:13:04.399Z,101145.16
2022-12-01T02:16:12.065Z,101141.84
2022-12-01T02:19:24.785Z,101139.47
2022-12-01T02:22:32.682Z,101137.78
2022-12-01T02:25:37.241Z,101148.19
2022-12-01T02:28:57.502Z,101142.00
2022-12-01T02:31:59.260Z,101143.78
2022-12-01T02:35:04.705Z,101144.56
2022-12-01T02:38:06.522Z,101150.41
2022-12-01T02:41:12.681Z,101145.31
2022-12-01T02:44:23.692Z,101141.22
2022-12-01T02:47:25.578Z,101138.91
2022-12-01T02:50:27.528Z,101134.84
2022-12-01T02:53:29.395Z,101139.34
2022-12-01T02:56:31.389Z,101139.97
2022-12-01T02:59:33.284Z,101127.25
2022-12-01T03:02:50.555Z,101125.91
2022-12-01T03:05:53.973Z,101121.28
2022-12-01T03:08:59.314Z,101132.91
2022-12-01T03:12:01.112Z,101128.03
2022-12-01T03:15:09.415Z,101128.00
2022-12-01T03:18:18.581Z,101127.19
2022-12-01T03:21:20.532Z,101132.81
2022-12-01T03:24:22.847Z,101142.34
2022-12-01T03:27:25.959Z,101121.03
2022-12-01T03:30:27.963Z,101125.09
2022-12-01T03:33:36.872Z,101131.16
2022-12-01T03:36:43.184Z,101130.25
2022-12-01T03:39:45.270Z,101123.78
2022-12-01T03:42:53.051Z,101111.91
2022-12-01T03:46:03.749Z,101123.41
2022-12-01T03:49:06.037Z,101118.09
2022-12-01T03:52:16.344Z,101126.47
2022-12-01T03:55:18.152Z,101122.94
2022-12-01T03:58:21.326Z,101111.44
2022-12-01T04:01:23.399Z,101111.78
2022-12-01T04:04:25.262Z,101130.94
2022-12-01T04:07:27.159Z,101130.09
2022-12-01T04:10:29.125Z,101120.53
2022-12-01T04:13:31.105Z,101125.19
2022-12-01T04:16:33.032Z,101119.84
2022-12-01T04:19:34.946Z,101120.03
2022-12-01T04:22:36.818Z,101121.50
2022-12-01T04:25:38.664Z,101117.47
2022-12-01T04:28:40.507Z,101124.50
2022-12-01T04:31:42.559Z,101118.37
2022-12-01T04:34:44.880Z,101107.97
2022-12-01T04:37:46.764Z,101111.72
2022-12-01T04:40:48.620Z,101108.03
2022-12-01T04:43:52.288Z,101114.75
2022-12-01T04:46:54.206Z,101122.81
2022-12-01T04:49:56.108Z,101127.53
2022-12-01T04:52:57.947Z,101141.00
2022-12-01T04:56:00.503Z,101133.66
2022-12-01T04:59:02.352Z,101145.94
2022-12-01T05:02:04.495Z,101158.31
2022-12-01T05:05:06.889Z,101145.25
2022-12-01T05:08:08.809Z,101130.31
2022-12-01T05:11:12.176Z,101123.97
2022-12-01T05:14:14.036Z,101131.47
2022-12-01T05:17:15.891Z,101137.69
2022-12-01T05:20:40.677Z,101134.16
2022-12-01T05:23:42.680Z,101129.31
2022-12-01T05:26:44.555Z,101135.63
2022-12-01T05:29:46.635Z,101137.38
2022-12-01T05:32:48.657Z,101138.00
2022-12-01T05:35:50.780Z,101140.34
2022-12-01T05:38:52.729Z,101133.38
2022-12-01T05:41:54.612Z,101137.97
2022-12-01T05:44:56.967Z,101139.03
2022-12-01T05:47:59.845Z,101144.47
2022-12-01T05:51:07.558Z,101137.44
2022-12-01T05:54:09.360Z,101140.84
2022-12-01T05:57:11.212Z,101126.91
2022-12-01T06:00:13.366Z,101147.97
2022-12-01T06:03:15.333Z,101152.34
2022-12-01T06:06:17.534Z,101159.28
2022-12-01T06:09:19.368Z,101158.38
2022-12-01T06:12:21.257Z,101159.19
2022-12-01T06:15:23.106Z,101164.34
2022-12-01T06:18:26.047Z,101168.75
2022-12-01T06:21:27.860Z,101163.50
2022-12-01T06:24:29.683Z,101170.56
2022-12-01T06:27:31.533Z,101172.28
2022-12-01T06:30:33.379Z,101159.03
2022-12-01T06:33:35.277Z,101163.25
2022-12-01T06:36:39.383Z,101158.84
2022-12-01T06:39:46.909Z,101157.84
2022-12-01T06:42:51.175Z,101167.62
2022-12-01T06:46:01.678Z,101160.84
2022-12-01T06:49:09.299Z,101154.63
2022-12-01T06:52:11.856Z,101156.22
2022-12-01T06:55:15.687Z,101161.59
2022-12-01T06:58:31.798Z,101163.56
2022-12-01T07:01:59.026Z,101161.84
2022-12-01T07:05:05.373Z,101161.03
2022-12-01T07:08:13.506Z,101166.22
2022-12-01T07:11:26.839Z,101165.19
2022-12-01T07:14:31.606Z,101166.22
2022-12-01T07:17:37.645Z,101172.28
2022-12-01T07:20:43.691Z,101167.91
2022-12-01T07:23:48.098Z,101166.81
2022-12-01T07:26:56.538Z,101165.63
2022-12-01T07:30:00.065Z,101170.44
2022-12-01T07:33:04.867Z,101181.72
2022-12-01T07:36:31.158Z,101175.56
2022-12-01T07:39:40.412Z,101174.31
2022-12-01T07:42:45.150Z,101175.19
2022-12-01T07:45:50.438Z,101178.94
2022-12-01T07:52:10.814Z,101165.97
2022-12-01T07:56:19.772Z,101166.03
2022-12-01T07:58:54.718Z,101174.69
2022-12-01T08:02:01.370Z,101172.37
2022-12-01T08:05:05.491Z,101177.59
2022-12-01T08:08:19.606Z,101175.31
2022-12-01T08:11:24.998Z,101172.72
2022-12-01T08:14:31.593Z,101175.97
2022-12-01T08:17:36.063Z,101184.81
2022-12-01T08:20:55.417Z,101172.87
2022-12-01T08:24:00.227Z,101171.59
2022-12-01T08:27:06.897Z,101169.94
2022-12-01T08:30:10.857Z,101168.59
2022-12-01T08:33:18.501Z,101173.03
2022-12-01T08:36:27.177Z,101178.06
2022-12-01T08:39:30.022Z,101177.56
2022-12-01T08:42:36.997Z,101181.66
2022-12-01T08:45:41.228Z,101186.16
2022-12-01T08:48:51.083Z,101180.16
2022-12-01T08:51:56.836Z,101181.25
2022-12-01T08:55:05.815Z,101172.63
2022-12-01T08:58:10.716Z,101182.50
2022-12-01T09:01:18.816Z,101166.91
2022-12-01T09:04:22.324Z,101174.94
2022-12-01T09:07:26.899Z,101168.50
2022-12-01T09:10:31.873Z,101163.78
2022-12-01T09:13:35.889Z,101173.25
2022-12-01T09:16:41.842Z,101167.66
2022-12-01T09:19:44.519Z,101168.28
2022-12-01T09:22:46.606Z,101164.28
2022-12-01T09:25:53.404Z,101163.59
2022-12-01T09:28:59.992Z,101155.81
2022-12-01T09:32:05.323Z,101162.25
2022-12-01T09:35:18.595Z,101155.75
2022-12-01T09:38:29.744Z,101147.72
2022-12-01T09:41:43.309Z,101149.16
2022-12-01T09:44:55.145Z,101150.16
2022-12-01T09:48:01.941Z,101147.53
2022-12-01T09:51:11.318Z,101145.28
2022-12-01T09:54:19.682Z,101145.75
2022-12-01T09:57:31.167Z,101143.16
2022-12-01T10:00:36.897Z,101143.34
2022-12-01T10:03:54.896Z,101135.94
2022-12-01T10:07:12.304Z,101133.41
2022-12-01T10:10:23.426Z,101133.59
2022-12-01T10:13:34.191Z,101123.94
2022-12-01T10:16:48.760Z,101126.03
2022-12-01T10:20:09.198Z,101125.75
2022-12-01T10:23:38.882Z,101121.66
2022-12-01T10:27:11.914Z,101121.91
2022-12-01T10:30:24.452Z,101114.56
2022-12-01T10:33:44.325Z,101110.88
2022-12-01T10:36:48.041Z,101105.63
2022-12-01T10:40:06.785Z,101105.13
2022-12-01T10:43:16.331Z,101105.25
2022-12-01T10:46:23.015Z,101100.97
2022-12-01T10:53:08.840Z,101108.66
2022-12-01T10:56:13.359Z,101094.13
2022-12-01T10:59:31.638Z,101088.44
2022-12-01T11:06:40.586Z,101091.63
2022-12-01T11:09:47.993Z,101064.09
2022-12-01T11:13:01.941Z,101084.53
2022-12-01T11:16:24.565Z,101074.16
2022-12-01T11:20:02.892Z,101071.59
2022-12-01T11:23:25.164Z,101065.66
2022-12-01T11:26:28.335Z,101063.56
2022-12-01T11:29:32.277Z,101060.94
2022-12-01T11:32:36.098Z,101060.13
2022-12-01T11:35:42.521Z,101059.06
2022-12-01T11:38:44.415Z,101049.00
2022-12-01T11:41:46.268Z,101051.03
2022-12-01T11:48:15.445Z,101044.38
2022-12-01T11:51:19.994Z,101053.47
2022-12-01T11:54:23.173Z,101049.19
2022-12-01T11:57:34.166Z,101039.41
2022-12-01T12:00:44.155Z,101037.72
2022-12-01T12:04:04.630Z,101035.06
2022-12-01T12:07:18.613Z,101018.75
2022-12-01T12:10:20.608Z,101030.66
2022-12-01T12:13:31.970Z,101021.94
2022-12-01T12:16:33.962Z,101040.75
2022-12-01T12:20:06.291Z,101038.16
2022-12-01T12:23:06.216Z,101037.41
2022-12-01T12:26:19.448Z,101032.34
2022-12-01T12:29:29.503Z,101037.00
2022-12-01T12:32:37.345Z,101033.63
2022-12-01T12:35:42.593Z,101039.66
2022-12-01T12:38:53.692Z,101026.22
2022-12-01T12:41:56.126Z,101032.38
2022-12-01T12:45:02.749Z,101032.75
2022-12-01T12:48:11.268Z,101031.81
2022-12-01T12:51:20.809Z,101031.38
2022-12-01T12:54:33.886Z,101016.19
2022-12-01T12:57:37.406Z,101011.50
2022-12-01T13:00:40.880Z,101027.06
2022-12-01T13:03:45.828Z,101028.09
2022-12-01T13:07:14.217Z,101029.13
2022-12-01T13:10:28.295Z,101031.75
2022-12-01T13:13:32.456Z,101028.47
2022-12-01T13:16:35.836Z,101020.37
2022-12-01T13:19:37.839Z,101022.81
2022-12-01T13:22:39.927Z,101029.78
2022-12-01T13:25:44.278Z,101036.84
2022-12-01T13:28:50.525Z,101016.09
2022-12-01T13:31:55.004Z,101030.75
2022-12-01T13:34:57.145Z,101023.19
2022-12-01T13:38:19.143Z,101023.22
2022-12-01T13:41:24.291Z,101031.78
2022-12-01T13:44:27.615Z,101034.53
2022-12-01T13:47:33.145Z,101028.59
2022-12-01T13:50:44.639Z,101032.38
2022-12-01T13:54:01.615Z,101020.34
2022-12-01T13:57:04.636Z,101023.53
2022-12-01T14:00:25.677Z,101028.69
2022-12-01T14:03:38.443Z,101025.06
2022-12-01T14:06:50.572Z,101024.03
2022-12-01T14:09:53.482Z,101024.16
2022-12-01T14:12:56.324Z,101019.66
2022-12-01T14:15:59.305Z,101018.44
2022-12-01T14:19:01.338Z,101022.09
2022-12-01T14:22:04.527Z,101021.66
2022-12-01T14:25:21.183Z,101023.25
2022-12-01T14:28:43.076Z,101019.16
2022-12-01T14:31:46.694Z,101015.19
2022-12-01T14:34:52.329Z,101010.97
2022-12-01T14:37:54.430Z,101017.88
2022-12-01T14:40:56.746Z,101023.87
2022-12-01T14:44:07.853Z,101019.03
2022-12-01T14:47:13.733Z,101021.06
2022-12-01T14:50:17.523Z,101011.91
2022-12-01T14:53:30.187Z,101017.97
2022-12-01T14:56:32.874Z,101018.19
2022-12-01T14:59:34.882Z,101014.19
2022-12-01T15:02:43.692Z,101026.41
2022-12-01T15:05:45.722Z,101023.00
2022-12-01T15:09:10.571Z,101023.37
2022-12-01T15:12:19.496Z,101028.34
2022-12-01T15:15:24.328Z,101022.69
2022-12-01T15:18:30.219Z,101030.78
2022-12-01T15:21:32.553Z,101025.59
2022-12-01T15:24:34.518Z,101019.75
2022-12-01T15:27:36.667Z,101026.75
2022-12-01T15:30:39.537Z,101031.13
2022-12-01T15:33:46.787Z,101031.88
2022-12-01T15:36:48.700Z,101026.97
2022-12-01T15:39:52.868Z,101027.41
2022-12-01T15:43:03.478Z,101022.12
2022-12-01T15:46:17.714Z,101025.56
2022-12-01T15:49:30.057Z,101028.06
2022-12-01T15:52:32.424Z,101032.34
2022-12-01T15:55:35.637Z,101034.13
2022-12-01T15:58:41.904Z,101035.88
2022-12-01T16:01:43.983Z,101045.59
2022-12-01T16:04:46.357Z,101029.44
2022-12-01T16:08:12.725Z,101040.87
2022-12-01T16:11:10.034Z,101041.44
2022-12-01T16:14:22.507Z,101034.88
2022-12-01T16:17:24.423Z,101044.91
2022-12-01T16:20:26.251Z,101029.69
2022-12-01T16:23:28.392Z,101040.53
2022-12-01T16:26:30.264Z,101035.03
2022-12-01T16:29:36.624Z,101037.56
2022-12-01T16:32:39.648Z,101038.06
2022-12-01T16:35:41.559Z,101030.03
2022-12-01T16:38:43.390Z,101045.66
2022-12-01T16:41:46.713Z,101032.78
2022-12-01T16:44:49.522Z,101037.06
2022-12-01T16:47:51.747Z,101040.63
2022-12-01T16:50:53.801Z,101038.38
2022-12-01T16:53:55.735Z,101023.31
2022-12-01T16:56:57.565Z,101028.12
2022-12-01T16:59:59.455Z,101029.87
2022-12-01T17:03:01.520Z,101034.88
2022-12-01T17:06:03.921Z,101040.53
2022-12-01T17:09:06.041Z,101047.09
2022-12-01T17:12:08.000Z,101048.00
2022-12-01T17:15:10.454Z,101041.25
2022-12-01T17:18:12.669Z,101047.44
2022-12-01T17:21:14.646Z,101037.53
2022-12-01T17:24:19.212Z,101036.91
2022-12-01T17:27:24.339Z,101044.41
2022-12-01T17:30:26.275Z,101054.69
2022-12-01T17:33:28.197Z,101051.25
2022-12-01T17:36:30.305Z,101045.78
2022-12-01T17:39:32.175Z,101051.94
2022-12-01T17:42:34.053Z,101054.94
2022-12-01T17:45:35.874Z,101057.91
2022-12-01T17:48:43.854Z,101062.12
2022-12-01T17:51:45.786Z,101056.59
2022-12-01T17:54:47.969Z,101061.16
2022-12-01T17:57:50.105Z,101064.13
2022-12-01T18:00:53.803Z,101053.03
2022-12-01T18:03:56.711Z,101055.72
2022-12-01T18:06:58.700Z,101061.91
2022-12-01T18:10:00.650Z,101067.63
2022-12-01T18:13:02.944Z,101061.91
2022-12-01T18:16:08.717Z,101069.06
2022-12-01T18:19:10.563Z,101060.53
2022-12-01T18:22:12.466Z,101064.06
2022-12-01T18:25:14.537Z,101068.09
2022-12-01T18:28:16.331Z,101059.88
2022-12-01T18:31:18.355Z,101069.81
2022-12-01T18:34:20.346Z,101068.31
2022-12-01T18:37:22.228Z,101066.91
2022-12-01T18:40:24.336Z,101071.47
2022-12-01T18:43:26.603Z,101070.28
2022-12-01T18:46:29.060Z,101072.44
2022-12-01T18:49:30.967Z,101073.16
2022-12-01T18:52:34.886Z,101066.31
2022-12-01T18:55:36.990Z,101065.47
2022-12-01T18:58:42.144Z,101072.44
2022-12-01T19:01:44.791Z,101079.72
2022-12-01T19:04:50.070Z,101069.72
2022-12-01T19:07:55.124Z,101067.31
2022-12-01T19:11:00.622Z,101069.72
2022-12-01T19:14:03.614Z,101070.72
2022-12-01T19:17:05.624Z,101073.59
2022-12-01T19:20:07.799Z,101079.88
2022-12-01T19:23:09.622Z,101078.75
2022-12-01T19:26:12.265Z,101082.69
2022-12-01T19:29:14.159Z,101084.13
2022-12-01T19:32:15.985Z,101084.66
2022-12-01T19:35:17.849Z,101077.66
2022-12-01T19:38:19.688Z,101080.31
2022-12-01T19:41:24.163Z,101067.28
2022-12-01T19:44:25.972Z,101076.59
2022-12-01T19:47:30.597Z,101071.13
2022-12-01T19:50:35.738Z,101076.63
2022-12-01T19:53:37.722Z,101080.41
2022-12-01T19:56:39.515Z,101086.00
2022-12-01T19:59:41.423Z,101081.06
2022-12-01T20:02:43.305Z,101089.12
2022-12-01T20:05:45.149Z,101090.47
2022-12-01T20:08:47.239Z,101089.81
2022-12-01T20:11:49.035Z,101100.53
2022-12-01T20:14:51.087Z,101088.81
2022-12-01T20:17:53.997Z,101094.16
2022-12-01T20:21:05.085Z,101093.47
2022-12-01T20:24:07.423Z,101096.03
2022-12-01T20:27:09.812Z,101090.16
2022-12-01T20:30:12.081Z,101092.31
2022-12-01T20:33:13.925Z,101088.63
2022-12-01T20:36:15.791Z,101094.94
2022-12-01T20:39:17.755Z,101095.69
2022-12-01T20:42:22.277Z,101091.66
2022-12-01T20:45:24.099Z,101100.53
2022-12-01T20:48:26.165Z,101099.56
2022-12-01T20:51:27.979Z,101113.91
2022-12-01T20:54:30.959Z,101111.16
2022-12-01T20:57:33.013Z,101108.94
2022-12-01T21:00:35.636Z,101110.31
2022-12-01T21:03:38.269Z,101111.16
2022-12-01T21:06:40.089Z,101110.47
2022-12-01T21:09:41.933Z,101118.47
2022-12-01T21:13:02.801Z,101115.91
2022-12-01T21:16:12.365Z,101122.78
2022-12-01T21:19:22.950Z,101129.69
2022-12-01T21:22:24.828Z,101131.81
2022-12-01T21:25:26.664Z,101127.63
2022-12-01T21:28:29.870Z,101134.78
2022-12-01T21:31:31.710Z,101135.53
2022-12-01T21:34:33.784Z,101141.78
2022-12-01T21:37:35.632Z,101134.81
2022-12-01T21:40:37.471Z,101134.94
2022-12-01T21:43:39.319Z,101126.19
2022-12-01T21:46:42.345Z,101144.72
2022-12-01T21:49:46.844Z,101134.81
2022-12-01T21:52:48.873Z,101132.47
2022-12-01T21:55:50.752Z,101139.41
2022-12-01T21:58:52.978Z,101129.16
2022-12-01T22:01:55.844Z,101145.69
2022-12-01T22:04:58.473Z,101141.25
2022-12-01T22:08:12.268Z,101137.16
2022-12-01T22:11:18.783Z,101148.28
2022-12-01T22:14:20.591Z,101147.34
2022-12-01T22:17:22.517Z,101147.25
2022-12-01T22:20:24.332Z,101142.34
2022-12-01T22:23:33.017Z,101143.25
2022-12-01T22:26:38.620Z,101144.91
2022-12-01T22:29:42.223Z,101140.53
2022-12-01T22:32:46.123Z,101135.37
2022-12-01T22:35:49.168Z,101134.53
2022-12-01T22:38:50.945Z,101136.50
2022-12-01T22:41:54.764Z,101123.25
2022-12-01T22:45:00.074Z,101119.53
2022-12-01T22:48:01.928Z,101126.56
2022-12-01T22:51:24.104Z,101120.38
2022-12-01T22:54:27.083Z,101125.50
2022-12-01T22:57:31.203Z,101117.78
2022-12-01T23:00:33.064Z,101119.41
2022-12-01T23:03:34.938Z,101111.22
2022-12-01T23:06:42.552Z,101119.25
2022-12-01T23:09:44.431Z,101125.88
2022-12-01T23:12:47.192Z,101128.22
2022-12-01T23:15:53.663Z,101124.87
2022-12-01T23:18:55.662Z,101125.41
2022-12-01T23:21:57.489Z,101126.34
2022-12-01T23:24:59.847Z,101114.38
2022-12-01T23:28:03.826Z,101120.91
2022-12-01T23:31:05.770Z,101120.03
2022-12-01T23:34:12.356Z,101125.84
2022-12-01T23:37:40.409Z,101116.03
2022-12-01T23:40:42.231Z,101128.03
2022-12-01T23:43:46.710Z,101122.50
2022-12-01T23:46:53.198Z,101120.66
2022-12-01T23:49:57.771Z,101125.97
2022-12-01T23:52:59.600Z,101128.09
2022-12-01T23:56:03.517Z,101139.09
2022-12-01T23:59:06.025Z,101131.19
